Time;durP1;ratioP1;P1;durP2;ratioP2;P2;SDS_P1;SDS_P2;PMS_P1;PMS_P2;Temp;Humidity;BMP_temperature;BMP_pressure;BME280_temperature;BME280_humidity;BME280_pressure;Samples;Min_cycle;Max_cycle;Signal;HPM_P1;HPM_P2
2021/05/12 00:00:42;;;;;;;2.37;1.40;;;24.70;44.70;;;;;;5123577;28;20469;-42
2021/05/12 00:03:12;;;;;;;1.57;1.13;;;24.60;45.30;;;;;;5124094;28;20449;-40
2021/05/12 00:05:43;;;;;;;1.73;1.63;;;24.60;44.90;;;;;;5144210;28;20934;-40
2021/05/12 00:08:15;;;;;;;1.70;1.60;;;24.70;45.50;;;;;;5143946;28;20456;-39
2021/05/12 00:10:45;;;;;;;3.17;1.40;;;24.90;45.40;;;;;;5144437;28;20440;-40
2021/05/12 00:13:16;;;;;;;1.90;1.73;;;24.80;44.80;;;;;;5143093;28;20444;-40
2021/05/12 00:15:46;;;;;;;1.43;1.30;;;24.80;44.60;;;;;;5144113;28;20553;-41
2021/05/12 00:18:20;;;;;;;2.90;1.30;;;24.70;45.20;;;;;;5143632;28;20536;-39
2021/05/12 00:20:51;;;;;;;1.50;1.33;;;24.50;45.50;;;;;;5143674;28;20441;-40
2021/05/12 00:23:25;;;;;;;2.10;1.40;;;24.50;45.50;;;;;;5143951;28;20469;-41
2021/05/12 00:25:56;;;;;;;3.40;1.40;;;24.40;45.40;;;;;;5144612;28;20436;-41
2021/05/12 00:28:26;;;;;;;1.00;1.00;;;24.30;45.80;;;;;;5141945;28;20444;-41
2021/05/12 00:30:57;;;;;;;1.70;1.60;;;24.20;45.30;;;;;;5143452;28;20441;-41
2021/05/12 00:33:28;;;;;;;1.60;1.50;;;24.20;45.10;;;;;;5141847;28;20505;-39
2021/05/12 00:35:58;;;;;;;1.50;1.40;;;24.00;43.70;;;;;;5143162;28;20480;-41
2021/05/12 00:38:30;;;;;;;1.87;1.77;;;24.00;44.30;;;;;;5144134;28;20403;-41
2021/05/12 00:41:00;;;;;;;2.27;1.80;;;24.00;44.70;;;;;;5142665;28;20453;-41
2021/05/12 00:43:31;;;;;;;1.40;1.30;;;23.90;44.40;;;;;;5142593;28;20971;-40
2021/05/12 00:46:20;;;;;;;1.70;1.60;;;23.80;44.50;;;;;;5142479;28;20456;-41
2021/05/12 00:48:50;;;;;;;1.70;1.40;;;23.80;44.30;;;;;;5143120;28;20463;-41
2021/05/12 00:51:21;;;;;;;1.40;1.30;;;23.80;43.10;;;;;;5142390;28;20517;-39
2021/05/12 00:53:52;;;;;;;2.13;1.73;;;23.80;43.80;;;;;;5148923;27;20437;-39
2021/05/12 00:56:23;;;;;;;1.50;1.40;;;23.80;43.80;;;;;;5137775;28;20477;-39
2021/05/12 00:58:53;;;;;;;1.40;1.30;;;23.60;42.60;;;;;;5142478;28;20430;-41
2021/05/12 01:01:24;;;;;;;1.50;1.20;;;23.50;43.10;;;;;;5140032;28;20448;-38
2021/05/12 01:03:55;;;;;;;1.50;1.40;;;23.60;42.60;;;;;;5142225;28;20615;-40
2021/05/12 01:06:28;;;;;;;1.73;1.60;;;23.50;43.30;;;;;;5142585;28;20444;-40
2021/05/12 01:09:00;;;;;;;1.50;1.40;;;23.50;43.20;;;;;;5143379;27;20433;-40
2021/05/12 01:11:31;;;;;;;2.10;1.70;;;23.40;44.20;;;;;;5144211;27;20441;-40
2021/05/12 01:14:02;;;;;;;3.17;1.50;;;23.30;45.20;;;;;;5130307;27;20423;-40
2021/05/12 01:16:32;;;;;;;2.00;1.40;;;23.20;46.00;;;;;;5145887;27;20476;-40
2021/05/12 01:19:03;;;;;;;2.13;1.60;;;23.10;45.80;;;;;;5145556;27;20452;-38
2021/05/12 01:21:35;;;;;;;1.50;1.40;;;22.90;46.10;;;;;;5144831;27;20444;-40
2021/05/12 01:24:06;;;;;;;1.47;1.37;;;22.80;45.90;;;;;;5130583;27;20437;-40
2021/05/12 01:26:37;;;;;;;2.80;2.60;;;22.80;45.80;;;;;;5144891;27;20504;-40
2021/05/12 01:29:08;;;;;;;4.07;1.90;;;22.70;46.00;;;;;;5145616;27;20494;-39
2021/05/12 01:31:41;;;;;;;1.73;1.30;;;22.60;45.80;;;;;;5144991;27;20452;-38
2021/05/12 01:34:14;;;;;;;4.30;2.00;;;22.60;46.00;;;;;;5143658;27;20484;-38
2021/05/12 01:36:47;;;;;;;1.50;1.33;;;22.50;45.70;;;;;;5145953;27;20885;-41
2021/05/12 01:39:18;;;;;;;2.87;1.60;;;22.40;45.80;;;;;;5139077;27;20568;-38
2021/05/12 01:41:48;;;;;;;1.87;1.50;;;22.40;45.60;;;;;;5144185;27;20460;-40
2021/05/12 01:44:20;;;;;;;3.80;1.60;;;22.40;46.20;;;;;;5130893;27;20468;-41
2021/05/12 01:46:51;;;;;;;4.77;1.50;;;22.40;46.60;;;;;;5142314;27;20448;-41
2021/05/12 01:49:25;;;;;;;1.57;1.47;;;22.40;46.10;;;;;;5145127;27;20476;-41
2021/05/12 01:52:02;;;;;;;1.70;1.53;;;22.40;47.20;;;;;;5143577;27;20441;-41
2021/05/12 01:54:32;;;;;;;1.30;1.20;;;22.30;46.70;;;;;;5143895;27;20470;-41
2021/05/12 01:57:03;;;;;;;1.40;1.30;;;22.20;47.00;;;;;;5142256;27;20967;-41
2021/05/12 01:59:33;;;;;;;1.70;1.50;;;22.20;47.80;;;;;;5145989;27;20449;-41
2021/05/12 02:02:04;;;;;;;3.43;1.30;;;22.20;47.40;;;;;;5143446;27;20523;-41
2021/05/12 02:04:34;;;;;;;1.47;1.37;;;22.10;47.60;;;;;;5144986;27;20463;-40
2021/05/12 02:07:08;;;;;;;1.50;1.40;;;22.00;47.80;;;;;;5144632;27;20493;-40
2021/05/12 02:09:43;;;;;;;2.53;1.43;;;22.10;47.50;;;;;;5146236;27;20416;-40
2021/05/12 02:12:13;;;;;;;2.40;1.50;;;22.00;48.00;;;;;;5144490;27;20481;-40
2021/05/12 02:14:44;;;;;;;1.50;1.40;;;22.00;48.20;;;;;;5145034;27;21106;-39
2021/05/12 02:17:14;;;;;;;2.40;1.27;;;21.90;48.10;;;;;;5144275;27;20508;-40
2021/05/12 02:19:45;;;;;;;1.53;1.40;;;21.90;47.30;;;;;;5144767;27;20476;-39
2021/05/12 02:22:16;;;;;;;1.60;1.50;;;21.80;47.00;;;;;;5142422;27;20438;-40
2021/05/12 02:24:47;;;;;;;2.33;1.40;;;21.70;47.90;;;;;;5145633;27;20789;-39
2021/05/12 02:27:17;;;;;;;1.60;1.50;;;21.60;47.30;;;;;;5143796;27;20438;-39
2021/05/12 02:29:48;;;;;;;1.50;1.40;;;21.50;46.90;;;;;;5144045;27;20452;-39
2021/05/12 02:32:18;;;;;;;3.10;1.50;;;21.50;47.00;;;;;;5144097;27;20423;-37
2021/05/12 02:34:48;;;;;;;2.00;1.57;;;21.40;47.20;;;;;;5144421;27;20430;-37
2021/05/12 02:37:22;;;;;;;2.23;1.27;;;21.40;47.60;;;;;;5145884;27;20492;-40
2021/05/12 02:39:53;;;;;;;1.73;1.63;;;21.40;47.40;;;;;;5144922;27;20544;-40
2021/05/12 02:42:23;;;;;;;2.60;1.33;;;21.30;47.30;;;;;;5143024;27;20456;-40
2021/05/12 02:44:54;;;;;;;1.50;1.30;;;21.30;47.20;;;;;;5144465;27;20480;-40
2021/05/12 02:47:25;;;;;;;1.37;1.27;;;21.20;47.90;;;;;;5144461;27;20498;-40
2021/05/12 02:49:55;;;;;;;2.13;1.40;;;21.10;47.90;;;;;;5144851;27;20424;-39
2021/05/12 02:52:27;;;;;;;3.40;1.80;;;21.10;48.20;;;;;;5144096;27;20476;-40
2021/05/12 02:54:58;;;;;;;2.10;1.63;;;21.00;48.50;;;;;;5142183;27;20445;-42
2021/05/12 02:57:28;;;;;;;1.60;1.50;;;20.90;49.60;;;;;;5134264;27;20531;-42
2021/05/12 02:59:59;;;;;;;2.80;1.70;;;20.80;50.40;;;;;;5144401;27;20444;-39
2021/05/12 03:02:29;;;;;;;2.00;1.80;;;20.70;51.10;;;;;;5142153;27;20435;-40
2021/05/12 03:05:00;;;;;;;3.03;2.03;;;20.60;52.20;;;;;;5143415;27;20564;-40
2021/05/12 03:07:31;;;;;;;2.50;2.10;;;20.60;52.30;;;;;;5144821;27;20426;-39
2021/05/12 03:10:02;;;;;;;2.27;2.03;;;20.60;53.30;;;;;;5144528;27;20448;-40
2021/05/12 03:12:33;;;;;;;2.07;1.87;;;20.50;54.10;;;;;;5143019;27;20815;-40
2021/05/12 03:15:03;;;;;;;2.70;2.00;;;20.40;54.90;;;;;;5143873;27;20423;-39
2021/05/12 03:17:34;;;;;;;6.07;2.27;;;20.40;55.80;;;;;;5143861;27;20504;-39
2021/05/12 03:20:06;;;;;;;5.23;2.57;;;20.30;56.60;;;;;;5143918;27;20452;-40
2021/05/12 03:22:37;;;;;;;1.80;1.50;;;20.30;57.30;;;;;;5143513;27;20426;-40
2021/05/12 03:25:08;;;;;;;3.93;2.03;;;20.20;57.90;;;;;;5144063;27;20464;-40
2021/05/12 03:27:39;;;;;;;2.37;2.13;;;20.20;58.50;;;;;;5142805;27;20490;-38
2021/05/12 03:30:12;;;;;;;2.87;1.80;;;20.00;59.30;;;;;;5133452;27;20744;-40
2021/05/12 03:32:43;;;;;;;2.60;2.00;;;20.00;59.60;;;;;;5142178;27;20463;-39
2021/05/12 03:35:14;;;;;;;2.93;1.67;;;19.90;60.40;;;;;;5144088;27;20415;-40
2021/05/12 03:37:45;;;;;;;2.40;2.20;;;19.90;61.20;;;;;;5144148;27;20476;-39
2021/05/12 03:40:17;;;;;;;2.30;2.10;;;19.80;61.50;;;;;;5143593;27;20435;-40
2021/05/12 03:42:48;;;;;;;3.07;2.03;;;19.80;62.40;;;;;;5141663;27;20431;-39
2021/05/12 03:45:38;;;;;;;2.20;2.00;;;19.70;62.80;;;;;;5142631;27;20476;-40
2021/05/12 03:48:09;;;;;;;2.00;1.80;;;19.70;63.90;;;;;;5137399;27;20760;-40
2021/05/12 03:50:40;;;;;;;1.63;1.53;;;19.60;64.40;;;;;;5143451;27;20449;-39
2021/05/12 03:53:11;;;;;;;3.27;2.43;;;19.50;64.60;;;;;;5143641;27;20484;-40
2021/05/12 03:55:42;;;;;;;2.30;2.10;;;19.40;65.60;;;;;;5143542;27;20525;-40
2021/05/12 03:58:13;;;;;;;3.87;2.03;;;19.40;65.90;;;;;;5142789;27;20734;-40
2021/05/12 04:00:45;;;;;;;4.10;2.40;;;19.40;66.50;;;;;;5142896;27;20423;-40
2021/05/12 04:03:16;;;;;;;2.53;2.03;;;19.30;67.00;;;;;;5131540;27;20441;-39
2021/05/12 04:05:46;;;;;;;3.10;2.00;;;19.30;67.80;;;;;;5142947;28;20440;-40
2021/05/12 04:08:18;;;;;;;2.60;2.20;;;19.20;68.30;;;;;;5143686;28;20440;-39
2021/05/12 04:10:48;;;;;;;3.60;1.90;;;19.20;69.10;;;;;;5143193;28;20490;-40
2021/05/12 04:13:19;;;;;;;4.67;2.80;;;19.10;69.80;;;;;;5142460;28;20453;-39
2021/05/12 04:15:50;;;;;;;4.43;2.63;;;19.00;70.40;;;;;;5143345;28;20458;-39
2021/05/12 04:18:20;;;;;;;3.50;2.50;;;19.00;71.10;;;;;;5143220;28;20455;-40
2021/05/12 04:20:50;;;;;;;2.97;2.17;;;19.00;71.70;;;;;;5143269;28;20449;-38
2021/05/12 04:23:22;;;;;;;3.13;2.60;;;18.90;72.50;;;;;;5142672;28;20449;-40
2021/05/12 04:25:53;;;;;;;3.67;2.63;;;18.80;73.20;;;;;;5143652;28;20521;-39
2021/05/12 04:28:23;;;;;;;4.27;2.57;;;18.80;73.60;;;;;;5142637;28;20448;-39
2021/05/12 04:30:53;;;;;;;5.83;2.57;;;18.80;73.90;;;;;;5143477;28;20456;-40
2021/05/12 04:33:24;;;;;;;2.90;2.60;;;18.80;74.40;;;;;;5142805;28;20501;-40
2021/05/12 04:35:54;;;;;;;2.80;2.10;;;18.70;75.20;;;;;;5142961;28;20564;-39
2021/05/12 04:38:26;;;;;;;3.77;2.40;;;18.60;76.20;;;;;;5142945;28;20466;-40
2021/05/12 04:40:58;;;;;;;4.20;2.60;;;18.60;76.50;;;;;;5143010;28;20437;-40
2021/05/12 04:43:29;;;;;;;2.33;2.20;;;18.60;77.20;;;;;;5141310;27;20460;-39
2021/05/12 04:46:00;;;;;;;2.90;2.70;;;18.50;77.70;;;;;;5146730;27;20537;-40
2021/05/12 04:48:33;;;;;;;5.10;2.60;;;18.40;78.40;;;;;;5146652;27;20437;-39
2021/05/12 04:51:03;;;;;;;2.70;2.20;;;18.40;78.80;;;;;;5142803;27;20453;-39
2021/05/12 04:53:35;;;;;;;3.53;2.50;;;18.30;80.10;;;;;;5146298;27;20445;-39
2021/05/12 04:56:06;;;;;;;4.10;2.67;;;18.30;80.60;;;;;;5146694;27;20608;-39
2021/05/12 04:58:36;;;;;;;2.30;2.10;;;18.20;81.00;;;;;;5145603;27;20474;-39
2021/05/12 05:01:07;;;;;;;3.17;2.67;;;18.20;81.60;;;;;;5146424;27;20444;-39
2021/05/12 05:03:41;;;;;;;2.90;2.40;;;18.10;81.50;;;;;;5146235;27;20415;-39
2021/05/12 05:06:12;;;;;;;3.30;2.53;;;18.10;82.70;;;;;;5146637;27;20452;-40
2021/05/12 05:08:44;;;;;;;3.40;2.33;;;18.10;83.50;;;;;;5145936;27;20528;-38
2021/05/12 05:11:15;;;;;;;2.87;2.63;;;18.00;84.00;;;;;;5146203;27;20445;-40
2021/05/12 05:13:46;;;;;;;3.87;2.80;;;17.90;84.60;;;;;;5144854;27;20505;-39
2021/05/12 05:16:16;;;;;;;4.07;2.70;;;17.80;85.40;;;;;;5143033;27;20493;-34
2021/05/12 05:18:48;;;;;;;5.63;2.50;;;17.80;85.90;;;;;;5146391;27;20437;-39
2021/05/12 05:21:18;;;;;;;2.30;2.10;;;17.80;86.50;;;;;;5145376;27;20453;-38
2021/05/12 05:23:50;;;;;;;4.20;2.20;;;17.70;87.60;;;;;;5144488;27;20456;-38
2021/05/12 05:26:21;;;;;;;3.00;2.67;;;17.60;88.20;;;;;;5143885;27;20541;-39
2021/05/12 05:28:51;;;;;;;3.13;2.70;;;17.50;88.90;;;;;;5144868;27;20441;-39
2021/05/12 05:31:22;;;;;;;2.50;2.30;;;17.50;89.50;;;;;;5145590;27;20441;-38
2021/05/12 05:33:52;;;;;;;2.73;2.07;;;17.40;89.40;;;;;;5145098;27;20425;-38
2021/05/12 05:36:23;;;;;;;2.40;2.10;;;17.40;88.80;;;;;;5145797;27;20476;-39
2021/05/12 05:38:55;;;;;;;2.33;2.13;;;17.40;89.10;;;;;;5146485;27;20445;-37
2021/05/12 05:41:25;;;;;;;2.27;2.07;;;17.30;89.10;;;;;;5145205;27;20448;-38
2021/05/12 05:43:56;;;;;;;3.53;2.00;;;17.30;89.90;;;;;;5145541;27;20485;-38
2021/05/12 05:46:26;;;;;;;3.50;2.10;;;17.20;90.00;;;;;;5143727;27;20441;-37
2021/05/12 05:48:57;;;;;;;3.43;2.00;;;17.20;90.10;;;;;;5145254;27;20441;-35
2021/05/12 05:51:27;;;;;;;2.67;2.47;;;17.10;90.90;;;;;;5144787;27;20476;-38
2021/05/12 05:53:59;;;;;;;3.50;2.23;;;17.10;90.80;;;;;;5145322;27;20555;-39
2021/05/12 05:56:29;;;;;;;2.30;2.00;;;17.10;90.80;;;;;;5144005;27;20516;-38
2021/05/12 05:59:00;;;;;;;2.30;2.10;;;17.00;91.00;;;;;;5145659;27;20461;-34
2021/05/12 06:01:30;;;;;;;3.30;2.10;;;17.00;91.40;;;;;;5145142;27;20437;-38
2021/05/12 06:04:01;;;;;;;3.63;2.47;;;16.90;91.70;;;;;;5143025;27;20437;-37
2021/05/12 06:06:31;;;;;;;2.63;2.20;;;16.90;92.00;;;;;;5145320;27;20505;-38
2021/05/12 06:09:03;;;;;;;2.90;2.30;;;16.90;92.20;;;;;;5145728;27;20457;-38
2021/05/12 06:11:34;;;;;;;4.03;2.20;;;16.80;92.70;;;;;;5144682;27;20449;-35
2021/05/12 06:14:04;;;;;;;4.97;2.70;;;16.80;92.70;;;;;;5145869;27;20461;-36
2021/05/12 06:16:35;;;;;;;4.40;2.37;;;16.80;92.70;;;;;;5144952;27;20429;-38
2021/05/12 06:19:06;;;;;;;3.90;2.27;;;16.80;92.80;;;;;;5145175;27;20452;-34
2021/05/12 06:21:36;;;;;;;2.30;2.10;;;16.80;93.00;;;;;;5144619;27;20460;-38
2021/05/12 06:24:09;;;;;;;3.10;2.03;;;16.70;93.00;;;;;;5144881;27;20509;-38
2021/05/12 06:26:39;;;;;;;3.63;2.50;;;16.60;93.40;;;;;;5142765;27;20517;-37
2021/05/12 06:29:11;;;;;;;2.23;2.03;;;16.70;93.50;;;;;;5145536;27;20485;-37
2021/05/12 06:31:42;;;;;;;2.90;2.10;;;16.60;93.70;;;;;;5144895;27;20441;-38
2021/05/12 06:34:12;;;;;;;2.80;2.07;;;16.60;94.00;;;;;;5143353;27;20476;-36
2021/05/12 06:36:43;;;;;;;2.30;2.10;;;16.60;93.70;;;;;;5143689;27;20927;-37
2021/05/12 06:39:14;;;;;;;2.20;2.00;;;16.50;94.10;;;;;;5144728;27;20506;-38
2021/05/12 06:41:45;;;;;;;2.97;2.10;;;16.50;94.00;;;;;;5143938;27;20719;-37
2021/05/12 06:44:16;;;;;;;2.23;2.13;;;16.40;94.50;;;;;;5144542;27;20484;-37
2021/05/12 06:46:47;;;;;;;2.10;1.80;;;16.40;94.50;;;;;;5144500;27;20453;-38
2021/05/12 06:49:17;;;;;;;3.30;2.30;;;16.40;94.80;;;;;;5143307;27;20552;-38
2021/05/12 06:51:48;;;;;;;3.13;2.17;;;16.40;94.70;;;;;;5143652;27;20449;-35
2021/05/12 06:54:21;;;;;;;5.20;1.87;;;16.50;94.50;;;;;;5142491;27;20479;-37
2021/05/12 06:56:51;;;;;;;2.93;2.30;;;16.40;94.80;;;;;;5143363;27;20624;-36
2021/05/12 06:59:21;;;;;;;2.80;2.40;;;16.40;94.90;;;;;;5144845;27;20437;-35
2021/05/12 07:01:52;;;;;;;3.80;2.27;;;16.30;95.10;;;;;;5142549;27;20433;-39
2021/05/12 07:04:24;;;;;;;3.70;2.20;;;16.30;95.50;;;;;;5144252;27;20497;-38
2021/05/12 07:06:54;;;;;;;2.90;1.83;;;16.30;95.50;;;;;;5129008;27;20835;-37
2021/05/12 07:09:26;;;;;;;2.47;2.23;;;16.20;95.80;;;;;;5143960;27;20462;-37
2021/05/12 07:11:56;;;;;;;3.93;2.50;;;16.20;96.20;;;;;;5143213;27;20456;-37
2021/05/12 07:14:26;;;;;;;3.27;2.77;;;16.10;96.50;;;;;;5144537;27;20474;-36
2021/05/12 07:16:57;;;;;;;7.03;2.67;;;16.10;96.30;;;;;;5143817;27;20944;-36
2021/05/12 07:19:27;;;;;;;3.70;2.40;;;16.10;96.60;;;;;;5144305;27;20457;-37
2021/05/12 07:21:58;;;;;;;3.67;2.67;;;16.00;96.70;;;;;;5143334;27;20448;-38
2021/05/12 07:24:29;;;;;;;2.67;2.30;;;16.00;97.10;;;;;;5143867;27;20509;-37
2021/05/12 07:27:00;;;;;;;2.90;2.63;;;15.90;97.20;;;;;;5142236;27;20448;-37
2021/05/12 07:29:30;;;;;;;2.87;2.63;;;15.80;97.70;;;;;;5144075;27;20455;-38
2021/05/12 07:32:01;;;;;;;3.63;2.90;;;15.80;97.70;;;;;;5143374;27;20559;-36
2021/05/12 07:34:32;;;;;;;2.43;1.93;;;15.80;98.00;;;;;;5143884;27;20497;-37
2021/05/12 07:37:02;;;;;;;1.90;1.80;;;15.70;98.30;;;;;;5141835;27;20552;-37
2021/05/12 07:39:35;;;;;;;2.67;2.13;;;15.70;98.50;;;;;;5143804;27;20445;-35
2021/05/12 07:42:07;;;;;;;3.30;2.37;;;15.60;98.80;;;;;;5143129;27;20536;-38
2021/05/12 07:44:57;;;;;;;2.23;1.93;;;15.50;99.20;;;;;;5144469;27;20480;-38
2021/05/12 07:47:28;;;;;;;4.10;2.10;;;15.40;99.90;;;;;;5142658;27;20911;-35
2021/05/12 07:49:58;;;;;;;3.20;2.43;;;15.30;99.90;;;;;;5143810;27;20509;-38
2021/05/12 07:52:28;;;;;;;4.20;2.30;;;15.20;99.90;;;;;;5143039;27;20461;-37
2021/05/12 07:55:00;;;;;;;3.33;2.60;;;15.20;99.90;;;;;;5142700;27;20440;-38
2021/05/12 07:57:30;;;;;;;4.80;2.30;;;15.20;99.90;;;;;;5142805;27;20545;-38
2021/05/12 08:00:03;;;;;;;3.33;2.43;;;15.10;99.90;;;;;;5144435;27;20437;-35
2021/05/12 08:02:33;;;;;;;2.63;2.03;;;15.00;99.90;;;;;;5143600;27;20482;-36
2021/05/12 08:05:04;;;;;;;2.57;2.27;;;15.00;99.90;;;;;;5143703;27;20444;-36
2021/05/12 08:07:34;;;;;;;3.10;2.07;;;15.00;99.90;;;;;;5141767;28;20460;-38
2021/05/12 08:10:07;;;;;;;3.57;2.43;;;14.90;99.90;;;;;;5143610;28;20444;-38
2021/05/12 08:12:37;;;;;;;4.10;2.63;;;14.70;99.90;;;;;;5143022;28;20426;-35
2021/05/12 08:15:09;;;;;;;4.93;2.57;;;14.80;99.90;;;;;;5127222;28;20565;-38
2021/05/12 08:17:39;;;;;;;3.03;2.73;;;14.70;99.90;;;;;;5143221;28;20971;-34
2021/05/12 08:20:10;;;;;;;3.70;2.60;;;14.70;99.90;;;;;;5145592;27;20456;-38
2021/05/12 08:22:40;;;;;;;3.77;2.50;;;14.60;99.90;;;;;;5143413;27;20475;-37
2021/05/12 08:25:13;;;;;;;6.03;3.00;;;14.50;99.90;;;;;;5146050;27;20484;-35
2021/05/12 08:27:45;;;;;;;5.00;2.67;;;14.50;99.90;;;;;;5145930;27;20441;-36
2021/05/12 08:30:16;;;;;;;4.70;2.90;;;14.40;99.90;;;;;;5147408;27;20437;-38
2021/05/12 08:32:47;;;;;;;3.97;2.90;;;14.30;99.90;;;;;;5146989;27;20472;-34
2021/05/12 08:35:18;;;;;;;3.87;2.50;;;14.10;99.90;;;;;;5147610;27;20477;-36
2021/05/12 08:37:51;;;;;;;8.70;3.07;;;14.10;99.90;;;;;;5147073;27;20476;-39
2021/05/12 08:40:23;;;;;;;3.90;3.10;;;14.00;99.90;;;;;;5147397;27;20448;-38
2021/05/12 08:42:56;;;;;;;4.07;3.67;;;14.00;99.90;;;;;;5146594;27;20537;-38
2021/05/12 08:45:30;;;;;;;7.70;3.03;;;14.00;99.90;;;;;;5146090;27;20528;-35
2021/05/12 08:48:04;;;;;;;2.77;2.47;;;13.90;99.90;;;;;;5146761;27;20473;-37
2021/05/12 08:50:36;;;;;;;2.77;2.57;;;13.90;99.90;;;;;;5147389;27;20994;-37
2021/05/12 08:53:08;;;;;;;3.17;2.93;;;13.90;99.90;;;;;;5146742;27;20452;-36
2021/05/12 08:55:39;;;;;;;3.60;2.80;;;13.80;99.90;;;;;;5145925;27;20482;-34
2021/05/12 08:58:10;;;;;;;10.73;3.07;;;13.80;99.90;;;;;;5145891;27;20521;-37
2021/05/12 09:00:41;;;;;;;3.40;3.10;;;13.80;99.90;;;;;;5144231;27;20460;-37
2021/05/12 09:03:11;;;;;;;4.00;3.10;;;13.80;99.90;;;;;;5146820;27;20448;-35
2021/05/12 09:05:42;;;;;;;3.20;2.90;;;13.80;99.90;;;;;;5147279;27;21065;-37
2021/05/12 09:08:13;;;;;;;3.00;2.80;;;13.70;99.90;;;;;;5146447;27;20456;-35
2021/05/12 09:10:44;;;;;;;5.80;3.40;;;13.70;99.90;;;;;;5146607;27;20518;-36
2021/05/12 09:13:30;;;;;;;3.30;2.53;;;13.60;99.90;;;;;;5146064;27;20825;-38
2021/05/12 09:16:19;;;;;;;4.30;3.80;;;13.60;99.90;;;;;;5147258;27;20896;-37
2021/05/12 09:18:50;;;;;;;4.23;2.70;;;13.50;99.90;;;;;;5146345;27;20484;-37
2021/05/12 09:21:23;;;;;;;4.40;2.80;;;13.50;99.90;;;;;;5146675;27;20533;-33
2021/05/12 09:23:53;;;;;;;4.33;3.50;;;13.40;99.90;;;;;;5146996;27;20517;-36
2021/05/12 09:26:25;;;;;;;5.00;3.00;;;13.40;99.90;;;;;;5146132;27;20456;-38
2021/05/12 09:28:56;;;;;;;3.70;2.67;;;13.40;99.90;;;;;;5143622;27;20445;-35
2021/05/12 09:31:37;;;;;;;3.20;2.90;;;13.30;99.90;;;;;;5145371;27;20462;-38
2021/05/12 09:34:11;;;;;;;3.10;2.80;;;13.20;99.90;;;;;;5146611;27;20455;-38
2021/05/12 09:36:42;;;;;;;2.93;2.73;;;13.20;99.90;;;;;;5144613;27;20445;-36
2021/05/12 09:39:14;;;;;;;6.80;3.13;;;13.10;99.90;;;;;;5146033;27;20552;-35
2021/05/12 09:41:46;;;;;;;2.90;2.67;;;13.20;99.90;;;;;;5145163;27;20463;-39
2021/05/12 09:44:29;;;;;;;4.83;2.80;;;13.10;99.90;;;;;;5146367;27;20484;-38
2021/05/12 09:47:05;;;;;;;8.07;3.13;;;13.10;99.90;;;;;;5136233;27;20884;-36
2021/05/12 09:49:35;;;;;;;3.00;2.80;;;13.10;99.90;;;;;;5139571;27;20444;-38
2021/05/12 09:52:06;;;;;;;4.30;3.60;;;13.10;99.90;;;;;;5145764;27;20875;-39
2021/05/12 09:54:36;;;;;;;3.80;3.50;;;13.00;99.90;;;;;;5129430;27;20445;-38
2021/05/12 09:57:09;;;;;;;4.80;3.13;;;13.00;99.90;;;;;;5142918;27;20444;-36
2021/05/12 09:59:40;;;;;;;3.70;3.37;;;12.90;99.90;;;;;;5146091;27;20509;-35
2021/05/12 10:02:14;;;;;;;3.20;2.97;;;12.90;99.90;;;;;;5144520;27;20440;-36
2021/05/12 10:04:44;;;;;;;3.33;2.83;;;12.90;99.90;;;;;;5145601;27;20545;-38
2021/05/12 10:07:17;;;;;;;4.20;3.00;;;12.80;99.90;;;;;;5145643;27;20513;-36
2021/05/12 10:09:49;;;;;;;5.27;3.47;;;12.70;99.90;;;;;;5145785;27;20482;-36
2021/05/12 10:12:22;;;;;;;3.43;3.13;;;12.70;99.90;;;;;;5143877;27;20445;-36
2021/05/12 10:14:55;;;;;;;3.40;3.10;;;12.60;99.90;;;;;;5145572;27;20478;-37
2021/05/12 10:17:26;;;;;;;4.30;3.00;;;12.60;99.90;;;;;;5144041;27;20196;-37
2021/05/12 10:19:57;;;;;;;3.63;3.30;;;12.60;99.90;;;;;;5145122;27;20826;-38
2021/05/12 10:22:27;;;;;;;5.90;3.20;;;12.60;99.90;;;;;;5145226;27;20469;-39
2021/05/12 10:24:58;;;;;;;2.97;2.77;;;12.60;99.90;;;;;;5144953;27;20441;-39
2021/05/12 10:27:31;;;;;;;3.92;3.45;;;12.60;99.90;;;;;;5144334;27;20460;-37
2021/05/12 10:30:07;;;;;;;5.40;3.20;;;12.60;99.90;;;;;;5144411;27;20302;-39
2021/05/12 10:32:44;;;;;;;3.92;3.42;;;12.60;99.90;;;;;;5144004;27;20452;-39
2021/05/12 10:35:16;;;;;;;5.40;3.40;;;12.60;99.90;;;;;;5146064;27;20207;-38
2021/05/12 10:37:47;;;;;;;3.93;3.30;;;12.50;99.90;;;;;;5144091;27;20223;-34
2021/05/12 10:40:20;;;;;;;5.50;3.30;;;12.60;99.90;;;;;;5144829;27;20445;-37
2021/05/12 10:43:01;;;;;;;3.83;3.50;;;12.60;99.90;;;;;;5143204;27;20461;-35
2021/05/12 10:45:57;;;;;;;4.13;2.95;;;12.60;99.90;;;;;;5144626;27;20867;-37
2021/05/12 10:48:41;;;;;;;6.97;2.97;;;12.50;99.90;;;;;;5143353;27;20217;-40
2021/05/12 10:51:30;;;;;;;3.65;2.80;;;12.50;99.90;;;;;;5144588;27;20522;-39
2021/05/12 10:54:03;;;;;;;3.15;2.55;;;12.50;99.90;;;;;;5140976;27;20210;-38
2021/05/12 10:56:38;;;;;;;6.83;3.63;;;12.50;99.90;;;;;;5142531;27;20199;-38
2021/05/12 10:59:11;;;;;;;5.40;3.40;;;12.50;99.90;;;;;;5144094;27;20509;-37
2021/05/12 11:01:55;;;;;;;3.30;2.63;;;12.40;99.90;;;;;;5143949;27;20457;-37
2021/05/12 11:04:29;;;;;;;7.63;2.92;;;12.40;99.90;;;;;;5144473;27;20521;-37
2021/05/12 11:07:09;;;;;;;3.13;2.83;;;12.30;99.90;;;;;;5144008;27;20227;-37
2021/05/12 11:09:45;;;;;;;6.55;3.50;;;12.30;99.90;;;;;;5144548;27;20568;-36
2021/05/12 11:12:38;;;;;;;3.07;2.77;;;12.20;99.90;;;;;;5135111;27;20221;-35
2021/05/12 11:15:11;;;;;;;3.58;3.17;;;12.10;99.90;;;;;;5144228;27;20441;-34
2021/05/12 11:17:49;;;;;;;3.60;3.25;;;12.10;99.90;;;;;;5143645;27;20566;-38
2021/05/12 11:20:25;;;;;;;5.13;3.13;;;12.10;99.90;;;;;;5143089;27;20896;-37
2021/05/12 11:22:58;;;;;;;3.40;3.20;;;12.00;99.90;;;;;;5143661;27;20564;-38
2021/05/12 11:25:43;;;;;;;3.35;3.15;;;11.90;99.90;;;;;;5143460;27;20492;-36
2021/05/12 11:31:30;;;;;;;4.10;2.63;;;11.90;99.90;;;;;;5143607;27;20440;-34
2021/05/12 11:34:01;;;;;;;4.70;3.00;;;11.80;99.90;;;;;;5140627;27;20233;-36
2021/05/12 11:36:37;;;;;;;5.07;3.15;;;11.80;99.90;;;;;;5133508;27;20216;-39
2021/05/12 11:39:08;;;;;;;6.68;3.85;;;11.80;99.90;;;;;;5143707;27;20267;-39
2021/05/12 11:41:38;;;;;;;3.75;3.45;;;11.80;99.90;;;;;;5142350;27;20234;-38
2021/05/12 11:44:09;;;;;;;3.92;3.10;;;11.80;99.90;;;;;;5143746;27;20223;-34
2021/05/12 11:46:42;;;;;;;4.47;3.07;;;11.80;99.90;;;;;;5143215;27;20286;-39
2021/05/12 11:49:14;;;;;;;3.70;3.30;;;11.70;99.90;;;;;;5143773;27;20484;-37
2021/05/12 11:51:45;;;;;;;3.60;3.30;;;11.70;99.90;;;;;;5143320;27;20437;-39
2021/05/12 11:54:17;;;;;;;5.28;3.42;;;11.70;99.90;;;;;;5143432;27;20903;-39
2021/05/12 11:56:49;;;;;;;3.77;3.47;;;11.70;99.90;;;;;;5134114;27;20813;-39
2021/05/12 11:59:23;;;;;;;3.30;3.00;;;11.60;99.90;;;;;;5143518;27;20484;-36
2021/05/12 12:02:05;;;;;;;3.83;3.50;;;11.60;99.90;;;;;;5142699;27;20451;-38
2021/05/12 12:04:37;;;;;;;4.13;3.22;;;11.60;99.90;;;;;;5143488;27;20209;-39
2021/05/12 12:07:10;;;;;;;3.50;3.20;;;11.60;99.90;;;;;;5143436;27;20248;-35
2021/05/12 12:09:40;;;;;;;3.60;3.28;;;11.60;99.90;;;;;;5143280;28;20287;-40
2021/05/12 12:12:11;;;;;;;5.00;3.50;;;11.50;99.90;;;;;;5142132;28;20199;-35
2021/05/12 12:14:41;;;;;;;3.00;2.80;;;11.50;99.90;;;;;;5143546;28;20606;-36
2021/05/12 12:17:14;;;;;;;5.70;3.40;;;11.50;99.90;;;;;;5142507;28;20195;-39
2021/05/12 12:19:44;;;;;;;5.53;3.75;;;11.50;99.90;;;;;;5143059;28;20241;-38
2021/05/12 12:22:16;;;;;;;3.70;3.40;;;11.40;99.90;;;;;;5142645;28;20238;-33
2021/05/12 12:24:49;;;;;;;4.93;3.72;;;11.40;99.90;;;;;;5143553;28;20259;-36
2021/05/12 12:27:21;;;;;;;4.43;4.03;;;11.30;99.90;;;;;;5142020;28;20686;-38
2021/05/12 12:29:52;;;;;;;4.25;3.85;;;11.30;99.90;;;;;;5143279;28;20199;-39
2021/05/12 12:32:23;;;;;;;5.00;3.17;;;11.30;99.90;;;;;;5142552;28;20206;-36
2021/05/12 12:35:01;;;;;;;7.75;4.00;;;11.30;99.90;;;;;;5143683;28;20590;-32
2021/05/12 12:37:34;;;;;;;3.80;3.15;;;11.20;99.90;;;;;;5142562;28;20187;-38
2021/05/12 12:40:07;;;;;;;5.25;3.45;;;11.20;99.90;;;;;;5143200;28;20326;-40
2021/05/12 12:42:40;;;;;;;6.45;3.67;;;11.20;99.90;;;;;;5141877;28;20339;-37
2021/05/12 12:45:22;;;;;;;4.10;3.70;;;11.10;99.90;;;;;;5143156;28;20227;-37
2021/05/12 12:47:55;;;;;;;4.07;3.78;;;11.10;99.90;;;;;;5141215;28;20199;-34
2021/05/12 12:50:28;;;;;;;4.75;3.75;;;11.10;99.90;;;;;;5142039;28;20601;-36
2021/05/12 12:53:00;;;;;;;6.43;4.28;;;11.00;99.90;;;;;;5139407;28;20286;-36
2021/05/12 12:55:32;;;;;;;5.13;3.38;;;10.90;99.90;;;;;;5143182;28;20199;-38
2021/05/12 12:58:03;;;;;;;3.97;3.42;;;11.00;99.90;;;;;;5141300;28;20623;-36
2021/05/12 13:00:36;;;;;;;5.63;4.20;;;11.00;99.90;;;;;;5142883;28;20629;-38
2021/05/12 13:03:09;;;;;;;4.32;3.47;;;11.00;99.90;;;;;;5142544;28;20203;-38
2021/05/12 13:05:42;;;;;;;5.35;4.20;;;11.00;99.90;;;;;;5144782;27;20226;-38
2021/05/12 13:08:19;;;;;;;7.30;3.20;;;11.00;99.90;;;;;;5143320;27;20264;-39
2021/05/12 13:11:10;;;;;;;5.80;3.90;;;11.10;99.90;;;;;;5146312;27;20299;-39
2021/05/12 13:13:46;;;;;;;4.90;3.75;;;11.10;99.90;;;;;;5142983;27;20191;-36
2021/05/12 13:16:22;;;;;;;4.18;3.78;;;11.00;99.90;;;;;;5146672;27;20627;-38